createdAt,value
2023-05-15T00:02:35.000Z,76.04
2023-05-15T00:06:39.296Z,76.16
2023-05-15T00:10:57.413Z,76.25
2023-05-15T00:15:03.624Z,76.30
2023-05-15T00:19:06.821Z,76.30
2023-05-15T00:23:10.083Z,76.09
2023-05-15T00:27:14.671Z,76.37
2023-05-15T00:31:18.001Z,76.42
2023-05-15T00:35:20.925Z,76.55
2023-05-15T00:39:24.554Z,76.62
2023-05-15T00:43:30.601Z,76.73
2023-05-15T00:47:35.294Z,77.09
2023-05-15T00:51:38.845Z,76.97
2023-05-15T00:55:43.796Z,76.97
2023-05-15T00:59:51.502Z,77.04
2023-05-15T01:03:55.062Z,77.01
2023-05-15T01:08:10.064Z,76.65
2023-05-15T01:12:16.999Z,76.74
2023-05-15T01:16:22.799Z,76.29
2023-05-15T01:20:27.284Z,76.52
2023-05-15T01:24:51.490Z,76.61
2023-05-15T01:29:01.099Z,76.42
2023-05-15T01:33:10.083Z,76.46
2023-05-15T01:37:16.123Z,76.44
2023-05-15T01:41:26.345Z,76.48
2023-05-15T01:45:33.774Z,76.27
2023-05-15T01:49:38.176Z,76.57
2023-05-15T01:53:43.974Z,76.50
2023-05-15T01:57:48.835Z,76.59
2023-05-15T02:01:54.154Z,76.39
2023-05-15T02:05:58.057Z,76.47
2023-05-15T02:10:03.301Z,76.35
2023-05-15T02:14:07.144Z,76.52
2023-05-15T02:18:12.305Z,76.47
2023-05-15T02:22:15.528Z,76.36
2023-05-15T02:26:31.361Z,76.62
2023-05-15T02:30:40.366Z,76.61
2023-05-15T02:34:52.724Z,76.41
2023-05-15T02:38:58.046Z,75.58
2023-05-15T02:43:02.044Z,75.68
2023-05-15T02:47:06.581Z,75.82
2023-05-15T02:51:12.494Z,76.19
2023-05-15T02:55:16.296Z,76.24
2023-05-15T02:59:20.284Z,76.36
2023-05-15T03:03:23.615Z,76.14
2023-05-15T03:07:28.322Z,76.42
2023-05-15T03:11:31.751Z,76.50
2023-05-15T03:15:35.062Z,76.60
2023-05-15T03:19:38.790Z,76.44
2023-05-15T03:23:43.280Z,76.87
2023-05-15T03:27:47.042Z,76.78
2023-05-15T03:31:50.299Z,76.72
2023-05-15T03:35:53.695Z,76.96
2023-05-15T03:39:58.384Z,76.82
2023-05-15T03:44:01.753Z,77.02
2023-05-15T03:48:07.604Z,76.92
2023-05-15T03:52:11.763Z,76.73
2023-05-15T03:56:16.679Z,76.90
2023-05-15T04:00:20.534Z,77.02
2023-05-15T04:04:23.686Z,76.94
2023-05-15T04:08:27.149Z,76.93
2023-05-15T04:12:33.385Z,76.85
2023-05-15T04:16:36.366Z,77.29
2023-05-15T04:20:39.672Z,77.38
2023-05-15T04:24:43.240Z,77.07
2023-05-15T04:29:00.176Z,77.29
2023-05-15T04:33:07.592Z,77.55
2023-05-15T04:37:10.806Z,77.28
2023-05-15T04:41:14.195Z,76.89
2023-05-15T04:45:18.906Z,77.24
2023-05-15T04:49:22.223Z,76.76
2023-05-15T04:53:25.694Z,76.44
2023-05-15T04:57:29.829Z,76.95
2023-05-15T05:01:34.558Z,76.75
2023-05-15T05:05:37.997Z,76.72
2023-05-15T05:09:41.577Z,76.66
2023-05-15T05:13:44.989Z,76.99
2023-05-15T05:17:49.672Z,76.59
2023-05-15T05:21:52.938Z,76.69
2023-05-15T05:25:55.982Z,76.76
2023-05-15T05:29:59.416Z,76.41
2023-05-15T05:34:04.270Z,75.94
2023-05-15T05:38:07.445Z,75.57
2023-05-15T05:42:10.646Z,75.73
2023-05-15T05:46:13.881Z,75.22
2023-05-15T05:50:18.391Z,74.80
2023-05-15T05:54:22.059Z,74.24
2023-05-15T05:58:26.267Z,74.37
2023-05-15T06:02:29.943Z,73.75
2023-05-15T06:06:34.808Z,73.90
2023-05-15T06:10:38.289Z,72.84
2023-05-15T06:14:41.408Z,73.07
2023-05-15T06:18:44.823Z,72.25
2023-05-15T06:22:49.856Z,71.94
2023-05-15T06:26:53.216Z,72.96
2023-05-15T06:30:56.416Z,72.78
2023-05-15T06:34:59.929Z,72.67
2023-05-15T06:39:04.306Z,72.46
2023-05-15T06:43:07.923Z,72.47
2023-05-15T06:47:10.995Z,72.59
2023-05-15T06:51:14.806Z,73.31
2023-05-15T06:55:19.507Z,73.19
2023-05-15T06:59:22.695Z,72.60
2023-05-15T07:03:25.961Z,72.83
2023-05-15T07:07:29.045Z,71.71
2023-05-15T07:11:37.579Z,70.53
2023-05-15T07:15:41.234Z,70.89
2023-05-15T07:19:44.881Z,69.59
2023-05-15T07:23:48.230Z,68.77
2023-05-15T07:27:52.775Z,67.96
2023-05-15T07:31:56.112Z,68.69
2023-05-15T07:35:59.530Z,67.55
2023-05-15T07:40:03.078Z,69.28
2023-05-15T07:44:07.896Z,67.96
2023-05-15T07:48:19.145Z,67.97
2023-05-15T07:52:22.258Z,65.22
2023-05-15T07:56:25.671Z,65.85
2023-05-15T08:00:30.110Z,66.82
2023-05-15T08:04:33.491Z,67.43
2023-05-15T08:08:36.778Z,67.05
2023-05-15T08:12:46.461Z,66.01
2023-05-15T08:16:51.863Z,65.75
2023-05-15T08:20:55.234Z,64.67
2023-05-15T08:25:00.333Z,64.54
2023-05-15T08:29:03.909Z,65.96
2023-05-15T08:33:08.495Z,64.63
2023-05-15T08:37:12.067Z,64.42
2023-05-15T08:41:39.178Z,65.39
2023-05-15T08:45:43.659Z,64.04
2023-05-15T08:49:55.282Z,64.58
2023-05-15T08:53:59.467Z,64.21
2023-05-15T08:58:03.436Z,64.63
2023-05-15T09:02:07.568Z,64.66
2023-05-15T09:06:12.356Z,64.06
2023-05-15T09:10:17.227Z,63.36
2023-05-15T09:14:20.292Z,62.96
2023-05-15T09:18:25.381Z,61.29
2023-05-15T09:22:35.811Z,62.90
2023-05-15T09:26:39.242Z,62.34
2023-05-15T09:30:44.002Z,63.79
2023-05-15T09:34:48.230Z,64.90
2023-05-15T09:39:00.205Z,65.67
2023-05-15T09:43:03.457Z,66.53
2023-05-15T09:47:07.873Z,66.26
2023-05-15T09:51:16.724Z,66.63
2023-05-15T09:55:24.014Z,66.60
2023-05-15T09:59:27.694Z,66.86
2023-05-15T10:03:30.987Z,64.83
2023-05-15T10:07:35.802Z,62.43
2023-05-15T10:11:42.016Z,62.44
2023-05-15T10:15:46.107Z,60.39
2023-05-15T10:24:01.995Z,59.88
2023-05-15T10:28:10.132Z,58.97
2023-05-15T10:32:14.323Z,59.94
2023-05-15T10:36:18.555Z,60.75
2023-05-15T10:40:21.659Z,61.85
2023-05-15T10:44:26.708Z,63.13
2023-05-15T10:48:31.084Z,62.45
2023-05-15T10:52:34.691Z,64.05
2023-05-15T10:56:40.852Z,64.90
2023-05-15T11:00:46.943Z,65.62
2023-05-15T11:04:54.720Z,66.44
2023-05-15T11:09:36.617Z,68.12
2023-05-15T11:14:15.510Z,67.66
2023-05-15T11:18:22.015Z,66.33
2023-05-15T11:22:32.139Z,65.35
2023-05-15T11:26:35.429Z,63.81
2023-05-15T11:30:40.053Z,61.18
2023-05-15T11:34:45.320Z,61.47
2023-05-15T11:38:52.459Z,64.36
2023-05-15T11:43:07.914Z,63.21
2023-05-15T11:47:12.334Z,59.61
2023-05-15T11:51:21.968Z,60.54
2023-05-15T11:55:27.554Z,58.73
2023-05-15T11:59:32.101Z,60.15
2023-05-15T12:03:36.311Z,58.50
2023-05-15T12:07:43.761Z,58.65
2023-05-15T12:11:52.296Z,59.25
2023-05-15T12:15:57.143Z,58.20
2023-05-15T12:20:01.375Z,59.24
2023-05-15T12:24:08.335Z,58.17
2023-05-15T12:28:13.299Z,57.85
2023-05-15T12:32:17.789Z,59.67
2023-05-15T12:36:22.571Z,60.91
2023-05-15T12:41:25.758Z,61.66
2023-05-15T12:45:29.166Z,58.20
2023-05-15T12:49:32.511Z,54.91
2023-05-15T12:53:36.492Z,56.35
2023-05-15T12:57:43.282Z,53.97
2023-05-15T13:01:46.842Z,54.02
2023-05-15T13:05:50.489Z,56.39
2023-05-15T13:10:04.831Z,55.53
2023-05-15T13:14:17.812Z,57.05
2023-05-15T13:18:21.212Z,57.08
2023-05-15T13:22:25.091Z,55.44
2023-05-15T13:26:28.783Z,55.83
2023-05-15T13:30:34.354Z,57.03
2023-05-15T13:34:37.655Z,53.68
2023-05-15T13:38:41.200Z,56.34
2023-05-15T13:42:47.435Z,53.50
2023-05-15T13:46:55.013Z,52.73
2023-05-15T13:50:58.629Z,54.01
2023-05-15T13:55:01.854Z,54.51
2023-05-15T13:59:05.302Z,55.57
2023-05-15T14:03:11.252Z,55.83
2023-05-15T14:07:16.003Z,56.30
2023-05-15T14:11:19.348Z,55.27
2023-05-15T14:15:25.181Z,56.30
2023-05-15T14:19:29.872Z,57.50
2023-05-15T14:23:33.370Z,55.08
2023-05-15T14:27:36.641Z,54.09
2023-05-15T14:31:39.698Z,54.09
2023-05-15T14:35:44.417Z,53.05
2023-05-15T14:39:47.866Z,52.18
2023-05-15T14:43:51.133Z,52.89
2023-05-15T14:47:54.572Z,51.82
2023-05-15T14:51:59.309Z,52.80
2023-05-15T14:56:04.780Z,52.81
2023-05-15T15:00:11.225Z,51.74
2023-05-15T15:04:14.568Z,51.36
2023-05-15T15:08:20.198Z,50.89
2023-05-15T15:12:23.724Z,49.99
2023-05-15T15:16:27.377Z,51.44
2023-05-15T15:20:30.715Z,48.43
2023-05-15T15:24:35.237Z,47.83
2023-05-15T15:28:38.669Z,51.53
2023-05-15T15:32:43.206Z,50.96
2023-05-15T15:36:46.612Z,51.99
2023-05-15T15:40:51.434Z,53.39
2023-05-15T15:44:55.047Z,53.91
2023-05-15T15:48:58.438Z,53.96
2023-05-15T15:53:01.898Z,53.52
2023-05-15T15:57:07.441Z,53.79
2023-05-15T16:01:11.517Z,53.52
2023-05-15T16:05:15.553Z,55.56
2023-05-15T16:09:20.065Z,55.02
2023-05-15T16:13:25.029Z,56.78
2023-05-15T16:17:27.952Z,56.35
2023-05-15T16:21:31.369Z,56.15
2023-05-15T16:25:34.408Z,55.57
2023-05-15T16:29:39.093Z,55.65
2023-05-15T16:33:42.416Z,55.55
2023-05-15T16:37:45.371Z,56.18
2023-05-15T16:41:49.030Z,55.11
2023-05-15T16:45:53.643Z,56.27
2023-05-15T16:49:56.922Z,55.75
2023-05-15T16:54:01.604Z,57.43
2023-05-15T16:58:04.881Z,56.89
2023-05-15T17:02:09.783Z,56.63
2023-05-15T17:06:13.345Z,60.35
2023-05-15T17:10:16.769Z,61.65
2023-05-15T17:14:19.924Z,62.35
2023-05-15T17:18:25.653Z,62.83
2023-05-15T17:22:29.311Z,63.19
2023-05-15T17:26:36.722Z,64.56
2023-05-15T17:30:40.067Z,66.03
2023-05-15T17:34:46.785Z,67.19
2023-05-15T17:38:51.555Z,67.14
2023-05-15T17:42:55.012Z,67.39
2023-05-15T17:46:58.377Z,68.30
2023-05-15T17:51:03.274Z,68.98
2023-05-15T17:55:08.215Z,69.44
2023-05-15T17:59:11.539Z,69.92
2023-05-15T18:03:15.485Z,70.85
2023-05-15T18:07:20.492Z,71.53
2023-05-15T18:11:23.616Z,71.33
2023-05-15T18:15:27.344Z,71.08
2023-05-15T18:19:31.023Z,71.86
2023-05-15T18:23:35.618Z,72.06
2023-05-15T18:27:38.733Z,72.66
2023-05-15T18:31:42.494Z,72.83
2023-05-15T18:35:46.084Z,73.19
2023-05-15T18:39:51.126Z,73.66
2023-05-15T18:43:54.338Z,73.45
2023-05-15T18:47:58.932Z,74.22
2023-05-15T18:52:04.242Z,74.79
2023-05-15T18:56:09.265Z,74.87
2023-05-15T19:00:16.831Z,75.42
2023-05-15T19:04:24.683Z,74.78
2023-05-15T19:08:29.063Z,74.56
2023-05-15T19:12:33.980Z,74.40
2023-05-15T19:16:37.902Z,74.22
2023-05-15T19:20:41.258Z,73.72
2023-05-15T19:24:44.535Z,73.11
2023-05-15T19:28:49.246Z,72.75
2023-05-15T19:32:52.789Z,72.12
2023-05-15T19:36:56.482Z,71.62
2023-05-15T19:40:59.940Z,71.89
2023-05-15T19:45:05.333Z,72.03
2023-05-15T19:49:08.621Z,71.95
2023-05-15T19:53:12.636Z,72.10
2023-05-15T19:57:16.284Z,72.56
2023-05-15T20:01:21.183Z,72.30
2023-05-15T20:05:24.759Z,72.81
2023-05-15T20:09:27.732Z,73.74
2023-05-15T20:13:31.591Z,73.58
2023-05-15T20:17:36.771Z,73.45
2023-05-15T20:21:40.421Z,73.14
2023-05-15T20:25:43.748Z,72.92
2023-05-15T20:29:46.988Z,73.04
2023-05-15T20:33:52.168Z,72.44
2023-05-15T20:37:56.580Z,72.44
2023-05-15T20:42:00.202Z,72.34
2023-05-15T20:46:03.233Z,72.34
2023-05-15T20:50:09.694Z,72.39
2023-05-15T20:54:13.161Z,72.60
2023-05-15T20:58:16.979Z,72.61
2023-05-15T21:02:20.083Z,72.89
2023-05-15T21:06:25.118Z,72.99
2023-05-15T21:10:28.390Z,73.28
2023-05-15T21:14:32.288Z,73.55
2023-05-15T21:18:35.807Z,73.57
2023-05-15T21:22:41.438Z,73.97
2023-05-15T21:26:44.709Z,74.12
2023-05-15T21:30:48.250Z,74.21
2023-05-15T21:34:51.301Z,74.16
2023-05-15T21:38:56.466Z,74.24
2023-05-15T21:42:59.595Z,75.21
2023-05-15T21:47:03.260Z,75.78
2023-05-15T21:51:06.725Z,76.16
2023-05-15T21:55:13.008Z,76.00
2023-05-15T21:59:16.031Z,76.39
2023-05-15T22:03:20.448Z,76.11
2023-05-15T22:07:23.783Z,75.09
2023-05-15T22:11:28.395Z,75.00
2023-05-15T22:15:32.183Z,75.30
2023-05-15T22:19:36.183Z,75.24
2023-05-15T22:23:39.297Z,75.16
2023-05-15T22:27:44.409Z,75.04
2023-05-15T22:31:47.682Z,75.26
2023-05-15T22:35:51.996Z,75.13
2023-05-15T22:39:55.217Z,75.05
2023-05-15T22:44:00.018Z,74.42
2023-05-15T22:48:03.867Z,73.76
2023-05-15T22:52:07.709Z,74.04
2023-05-15T22:56:10.968Z,74.79
2023-05-15T23:00:18.623Z,74.92
2023-05-15T23:04:22.143Z,75.36
2023-05-15T23:08:25.811Z,75.21
2023-05-15T23:12:29.108Z,75.28
2023-05-15T23:16:34.109Z,75.29
2023-05-15T23:20:37.782Z,75.44
2023-05-15T23:24:41.269Z,75.51
2023-05-15T23:28:44.298Z,75.43
2023-05-15T23:32:49.402Z,75.66
2023-05-15T23:36:52.643Z,76.06
2023-05-15T23:40:56.326Z,76.12
2023-05-15T23:44:59.283Z,75.61
2023-05-15T23:49:04.152Z,75.54
2023-05-15T23:53:08.403Z,75.05
2023-05-15T23:57:12.393Z,74.88
